Main page
METAR-TAF:

METAR-TAF

Airports :

Veliko Tarnovo, Bulgaria

Gorna Oryahovitsa Airport

latitude: 43-09N, longitude: 025-36E, elevation: 87 m

Current weather observation

The report was made 33 minutes ago, at 13:30 UTC
Wind 7 kt from the Northwest
Temperature 25°C
Humidity 32%
Pressure 1015 hPa
Visibility 10 km or more

METAR: LBGO 211330Z AUTO 31007KT 9999 NCD 25/07 Q1015 NOSIG

Time: 17:03 (14:03 UTC)

Forecast

The report was made 3 hours and 3 minutes ago, at 11:00 UTC
Forecast valid from 21 at 12 UTC to 22 at 12 UTC
Wind 6 kt from the West/Northwest
Visibility 10 km or more
no clouds below 1500 m and no cumulonimbus

TAF: LBGO 211100Z 2112/2212 29006KT CAVOK

Weather observations and forecasts of more than 4000 airports (METAR and TAF reports).

The available stations are represented by yellow and red dots on the map.

Hover mouse over dot to see the name of the station.

Then click to see weather observations and forecasts.

To change the map : click on the green buttons with a black cross to zoom in, on the green button with a dash to zoom out, or on the green arrows for adjacent maps.


METAR-TAF: